Time;durP1;ratioP1;P1;durP2;ratioP2;P2;SDS_P1;SDS_P2;PMS_P1;PMS_P2;Temp;Humidity;BMP_temperature;BMP_pressure;BME280_temperature;BME280_humidity;BME280_pressure;Samples;Min_cycle;Max_cycle;Signal;HPM_P1;HPM_P2
2021/05/15 08:00:48;;;;;;;2.03;0.98;;;14.50;59.30;;;;;;5532460;23;20581;-82
2021/05/15 08:03:15;;;;;;;4.32;1.20;;;14.10;59.80;;;;;;4848468;29;20375;-82
2021/05/15 08:05:42;;;;;;;2.50;0.80;;;14.40;60.30;;;;;;4844869;29;20065;-82
2021/05/15 08:08:10;;;;;;;1.67;0.80;;;14.60;59.80;;;;;;4829443;29;20073;-82
2021/05/15 08:10:37;;;;;;;1.30;0.80;;;14.60;58.70;;;;;;4809965;29;20050;-82
2021/05/15 08:13:05;;;;;;;1.55;0.85;;;14.50;58.30;;;;;;4816710;29;20232;-82
2021/05/15 08:15:32;;;;;;;1.98;0.90;;;14.40;59.00;;;;;;4813605;29;20156;-82
2021/05/15 08:18:01;;;;;;;1.45;0.70;;;14.60;57.30;;;;;;4842058;29;20062;-84
2021/05/15 08:20:29;;;;;;;2.13;0.80;;;14.90;57.30;;;;;;4842873;29;20058;-84
2021/05/15 08:22:56;;;;;;;3.38;1.50;;;15.10;56.00;;;;;;4829845;29;20038;-82
2021/05/15 08:25:25;;;;;;;5.13;0.80;;;15.20;56.00;;;;;;4828144;29;20065;-82
2021/05/15 08:27:56;;;;;;;1.45;0.75;;;15.10;56.30;;;;;;4813658;29;20049;-83
2021/05/15 08:30:27;;;;;;;3.75;0.82;;;15.10;56.70;;;;;;4842971;29;20073;-83
2021/05/15 08:32:56;;;;;;;2.00;1.00;;;14.90;56.60;;;;;;4843307;29;20050;-82
2021/05/15 08:35:25;;;;;;;2.92;0.85;;;14.90;56.80;;;;;;4840940;29;20054;-81
2021/05/15 08:37:53;;;;;;;3.00;0.90;;;15.00;57.30;;;;;;4843926;29;20306;-82
2021/05/15 08:40:22;;;;;;;3.05;0.88;;;15.00;56.50;;;;;;4813821;29;20053;-81
2021/05/15 08:42:53;;;;;;;1.17;0.70;;;15.20;56.20;;;;;;4825245;29;20058;-82
2021/05/15 08:45:23;;;;;;;2.33;0.80;;;15.20;56.10;;;;;;4841581;29;20061;-81
2021/05/15 08:47:50;;;;;;;;;;;15.10;56.30;;;;;;4826674;29;20069;-83
2021/05/15 08:50:20;;;;;;;1.92;1.20;;;15.20;55.90;;;;;;4809925;29;19928;-82
2021/05/15 08:52:50;;;;;;;1.60;0.80;;;15.60;54.30;;;;;;4823177;29;20115;-81
2021/05/15 08:55:18;;;;;;;;;;;15.90;52.50;;;;;;4844803;29;20315;-83
2021/05/15 08:57:46;;;;;;;1.90;0.93;;;16.00;53.10;;;;;;4827693;29;20207;-82
2021/05/15 09:00:16;;;;;;;3.50;1.10;;;16.20;52.20;;;;;;4824999;29;20241;-84
2021/05/15 09:02:45;;;;;;;4.60;1.33;;;15.90;51.50;;;;;;4808936;29;20050;-82
2021/05/15 09:05:28;;;;;;;3.33;0.90;;;16.10;51.70;;;;;;4195863;29;10001292;-83
2021/05/15 09:07:58;;;;;;;1.98;0.93;;;15.70;50.80;;;;;;1657280;29;10001991;-81
2021/05/15 09:10:32;;;;;;;1.85;0.90;;;15.60;52.00;;;;;;4802386;29;20127;-82
2021/05/15 09:13:14;;;;;;;1.85;1.13;;;15.60;51.90;;;;;;4803694;29;20173;-83
2021/05/15 09:15:44;;;;;;;2.30;1.30;;;15.60;52.10;;;;;;4805411;29;20322;-81
2021/05/15 09:18:14;;;;;;;1.63;0.80;;;15.50;52.80;;;;;;4810571;29;20229;-79
2021/05/15 09:20:42;;;;;;;2.15;0.80;;;16.00;51.80;;;;;;4790536;29;20115;-82
2021/05/15 09:23:15;;;;;;;1.73;0.80;;;16.10;51.00;;;;;;4808688;29;20380;-82
2021/05/15 09:25:43;;;;;;;2.97;0.90;;;16.00;50.50;;;;;;4788840;29;20126;-82
2021/05/15 09:28:14;;;;;;;2.83;0.90;;;16.10;49.70;;;;;;4799960;29;20074;-82
2021/05/15 09:30:43;;;;;;;2.45;1.35;;;16.10;50.20;;;;;;4809453;29;20062;-83
2021/05/15 09:33:15;;;;;;;1.83;0.80;;;15.90;50.50;;;;;;4791692;29;20069;-82
2021/05/15 09:35:42;;;;;;;3.20;1.15;;;16.10;51.30;;;;;;4807987;29;20103;-80
2021/05/15 09:38:10;;;;;;;3.40;1.00;;;16.10;50.40;;;;;;4794264;29;20063;-82
2021/05/15 09:40:40;;;;;;;1.98;0.88;;;16.30;49.80;;;;;;4823874;29;20055;-84
2021/05/15 09:43:08;;;;;;;3.63;0.98;;;17.00;48.50;;;;;;4820753;29;20063;-84
2021/05/15 09:45:38;;;;;;;1.80;0.93;;;16.80;48.00;;;;;;4805092;29;20054;-85
2021/05/15 09:48:09;;;;;;;2.53;1.08;;;16.50;48.80;;;;;;4790118;29;20047;-81
2021/05/15 09:50:38;;;;;;;2.28;1.02;;;17.00;48.20;;;;;;4811112;29;20063;-82
2021/05/15 09:53:11;;;;;;;2.53;1.13;;;16.90;48.20;;;;;;4814388;29;20030;-82
2021/05/15 09:55:40;;;;;;;3.30;1.15;;;16.60;48.80;;;;;;4802315;29;20058;-84
2021/05/15 09:58:08;;;;;;;2.72;1.25;;;16.60;48.40;;;;;;4807516;29;20063;-82
2021/05/15 10:00:40;;;;;;;2.67;1.05;;;16.70;49.00;;;;;;4770362;29;20059;-84
2021/05/15 10:03:18;;;;;;;2.00;1.10;;;17.00;48.00;;;;;;4808799;29;20046;-82
2021/05/15 10:05:58;;;;;;;2.65;1.10;;;17.10;47.40;;;;;;4790753;29;20337;-81
2021/05/15 10:08:25;;;;;;;3.65;1.23;;;17.20;47.70;;;;;;4777358;29;20058;-83
2021/05/15 10:10:55;;;;;;;3.92;1.38;;;18.20;45.60;;;;;;4821696;29;20062;-82
2021/05/15 10:13:23;;;;;;;3.23;1.30;;;18.60;45.60;;;;;;4787469;29;20051;-84
2021/05/15 10:15:50;;;;;;;5.95;1.63;;;17.90;46.50;;;;;;4807223;29;20345;-82
2021/05/15 10:18:18;;;;;;;2.45;1.27;;;17.40;47.10;;;;;;4818805;29;20402;-85
2021/05/15 10:20:49;;;;;;;2.03;1.00;;;17.30;47.70;;;;;;4807331;29;20055;-83
2021/05/15 10:23:18;;;;;;;1.63;0.93;;;17.80;46.10;;;;;;4789380;29;20205;-82
2021/05/15 10:25:45;;;;;;;1.90;0.90;;;18.40;46.20;;;;;;4807028;29;20061;-82
2021/05/15 10:28:25;;;;;;;1.40;0.70;;;18.60;44.40;;;;;;4791850;29;20530;-82
2021/05/15 10:31:12;;;;;;;2.97;0.80;;;19.50;42.10;;;;;;4789257;29;20059;-84
2021/05/15 10:33:41;;;;;;;2.55;1.20;;;20.20;40.50;;;;;;4807237;29;20054;-83
2021/05/15 10:36:19;;;;;;;;;;;20.50;40.00;;;;;;4793110;29;20114;-83
2021/05/15 10:38:47;;;;;;;1.92;1.00;;;21.30;38.90;;;;;;4805710;29;20184;-80
2021/05/15 10:41:16;;;;;;;2.50;1.00;;;21.40;37.80;;;;;;4811315;29;20062;-81
2021/05/15 10:43:45;;;;;;;3.78;0.90;;;21.30;38.60;;;;;;4792540;29;20547;-80
2021/05/15 10:46:17;;;;;;;3.45;0.90;;;20.40;40.60;;;;;;4801663;29;20043;-82
2021/05/15 10:49:03;;;;;;;4.07;1.08;;;20.60;39.80;;;;;;4783068;29;20059;-83
2021/05/15 10:51:39;;;;;;;1.17;0.80;;;20.50;40.00;;;;;;4806962;29;20062;-81
2021/05/15 10:54:07;;;;;;;1.30;0.80;;;21.10;39.10;;;;;;4814393;29;20298;-81
2021/05/15 10:56:34;;;;;;;15.18;1.13;;;20.20;41.60;;;;;;4818452;29;20063;-82
2021/05/15 10:59:06;;;;;;;2.45;1.00;;;19.00;43.50;;;;;;4810792;29;20069;-80
2021/05/15 11:01:48;;;;;;;0.90;0.60;;;18.10;45.20;;;;;;4807445;29;21397;-84
2021/05/15 11:04:27;;;;;;;2.20;0.70;;;17.30;47.30;;;;;;4774732;29;20090;-84
2021/05/15 11:07:06;;;;;;;1.08;0.70;;;17.10;49.00;;;;;;4824863;29;20194;-84
2021/05/15 11:09:36;;;;;;;2.53;0.63;;;16.50;52.70;;;;;;4808520;29;20130;-81
2021/05/15 11:12:06;;;;;;;1.33;0.57;;;15.90;53.70;;;;;;4797689;29;20103;-83
2021/05/15 11:14:35;;;;;;;1.35;0.50;;;15.40;57.50;;;;;;4831249;29;20077;-81
2021/05/15 11:17:07;;;;;;;0.60;0.30;;;14.90;61.90;;;;;;4824955;29;20065;-82
2021/05/15 11:19:35;;;;;;;1.60;0.73;;;13.50;72.30;;;;;;4806400;29;20118;-83
2021/05/15 11:22:05;;;;;;;1.45;0.60;;;12.20;85.30;;;;;;4799583;29;20111;-84
2021/05/15 11:24:34;;;;;;;1.23;0.60;;;11.20;90.60;;;;;;4829260;29;20069;-84
2021/05/15 11:27:12;;;;;;;2.83;0.68;;;10.70;90.90;;;;;;4804999;29;20070;-84
2021/05/15 11:29:42;;;;;;;1.38;0.60;;;10.70;93.10;;;;;;4831039;29;20066;-82
2021/05/15 11:32:11;;;;;;;3.15;0.60;;;10.70;93.10;;;;;;4817478;29;20076;-83
2021/05/15 11:34:41;;;;;;;1.08;0.45;;;10.70;92.40;;;;;;4826546;29;20221;-83
2021/05/15 11:37:11;;;;;;;7.65;0.95;;;10.60;92.60;;;;;;4799100;29;20070;-82
2021/05/15 11:39:38;;;;;;;1.63;0.55;;;10.50;93.20;;;;;;4811848;29;20063;-82
2021/05/15 11:42:08;;;;;;;3.25;0.50;;;10.40;95.00;;;;;;4793987;29;20353;-80
2021/05/15 11:44:38;;;;;;;1.33;0.43;;;10.20;95.10;;;;;;4798057;29;20074;-83
2021/05/15 11:47:09;;;;;;;0.60;0.40;;;10.30;95.70;;;;;;4798236;29;20114;-80
2021/05/15 11:49:37;;;;;;;;;;;10.40;95.40;;;;;;4797410;29;20059;-80
2021/05/15 11:52:06;;;;;;;1.05;0.43;;;10.90;96.40;;;;;;4811433;29;20050;-83
2021/05/15 11:54:34;;;;;;;1.30;0.57;;;11.60;96.50;;;;;;4814071;29;20248;-81
2021/05/15 11:57:01;;;;;;;1.60;0.40;;;11.80;95.40;;;;;;4791036;29;20058;-81
2021/05/15 11:59:32;;;;;;;0.80;0.43;;;11.80;92.70;;;;;;4794325;29;20118;-82
2021/05/15 12:02:00;;;;;;;2.65;0.70;;;12.30;93.90;;;;;;4822573;29;20285;-82
2021/05/15 12:04:33;;;;;;;0.63;0.40;;;12.80;93.50;;;;;;4802561;29;20050;-85
2021/05/15 12:07:02;;;;;;;0.43;0.30;;;12.80;89.80;;;;;;4809407;29;20065;-82
2021/05/15 12:09:37;;;;;;;0.60;0.35;;;13.00;85.40;;;;;;4806196;29;20050;-83
2021/05/15 12:12:10;;;;;;;1.25;0.40;;;14.20;84.60;;;;;;4804791;29;20155;-82
2021/05/15 12:14:42;;;;;;;1.95;0.90;;;14.40;81.30;;;;;;4809036;29;20086;-83
2021/05/15 12:17:14;;;;;;;;;;;14.40;78.50;;;;;;4803213;29;20066;-83
2021/05/15 12:19:55;;;;;;;0.88;0.45;;;14.40;79.40;;;;;;4781648;29;20008;-83
2021/05/15 12:22:27;;;;;;;1.15;0.57;;;14.60;82.30;;;;;;4808587;29;20137;-81
2021/05/15 12:25:07;;;;;;;1.55;0.50;;;14.40;81.20;;;;;;4807855;29;20062;-83
2021/05/15 12:27:36;;;;;;;3.40;0.70;;;14.60;81.00;;;;;;4821390;29;20326;-81
2021/05/15 12:30:08;;;;;;;1.50;0.60;;;14.70;80.10;;;;;;4794928;29;20085;-82
2021/05/15 12:32:38;;;;;;;1.02;0.40;;;15.00;81.60;;;;;;4811651;29;20070;-83
2021/05/15 12:35:09;;;;;;;1.00;0.40;;;15.20;80.30;;;;;;4789933;29;20082;-81
2021/05/15 12:37:38;;;;;;;0.47;0.30;;;15.80;77.70;;;;;;4808753;29;20061;-81
2021/05/15 12:40:09;;;;;;;0.32;0.10;;;16.60;72.10;;;;;;4808038;29;20058;-83
2021/05/15 12:42:36;;;;;;;0.95;0.30;;;16.90;66.50;;;;;;4824129;29;20066;-83
2021/05/15 12:45:09;;;;;;;0.57;0.20;;;17.40;63.70;;;;;;4792204;29;20097;-82
2021/05/15 12:47:36;;;;;;;1.23;0.30;;;17.40;62.90;;;;;;4815096;29;20078;-82
2021/05/15 12:50:15;;;;;;;0.47;0.30;;;18.50;63.60;;;;;;4791074;29;20061;-84
2021/05/15 12:52:43;;;;;;;1.65;0.10;;;19.10;59.90;;;;;;4794683;29;20130;-84
2021/05/15 12:55:17;;;;;;;1.13;0.30;;;18.20;60.80;;;;;;4809195;29;20134;-84
2021/05/15 12:57:53;;;;;;;1.30;0.40;;;19.10;61.00;;;;;;4803255;29;20074;-84
2021/05/15 13:00:21;;;;;;;0.75;0.20;;;19.20;52.40;;;;;;4804549;29;20066;-86
2021/05/15 13:02:58;;;;;;;1.25;0.38;;;20.30;48.10;;;;;;4808739;29;20067;-82
2021/05/15 13:05:33;;;;;;;1.67;0.35;;;20.80;45.70;;;;;;4817861;29;20050;-83
2021/05/15 13:08:05;;;;;;;0.70;0.30;;;21.40;46.30;;;;;;4822295;29;20078;-81
2021/05/15 13:10:35;;;;;;;1.98;0.65;;;22.30;41.20;;;;;;4801621;29;20104;-83
2021/05/15 13:13:02;;;;;;;1.17;0.40;;;22.10;40.70;;;;;;4808721;29;20066;-82
2021/05/15 13:15:30;;;;;;;0.95;0.38;;;22.40;39.40;;;;;;4810796;29;20059;-82
2021/05/15 13:18:01;;;;;;;1.35;0.25;;;20.50;41.20;;;;;;4807945;29;20054;-81
2021/05/15 13:20:42;;;;;;;0.22;0.10;;;20.90;41.10;;;;;;4805781;29;20070;-81
2021/05/15 13:23:10;;;;;;;0.80;0.30;;;20.20;43.10;;;;;;4808128;29;20169;-82
2021/05/15 13:25:38;;;;;;;0.95;0.30;;;19.70;43.60;;;;;;4807629;29;20058;-82
2021/05/15 13:28:06;;;;;;;1.35;0.20;;;19.20;44.10;;;;;;4822624;29;20473;-82
2021/05/15 13:30:34;;;;;;;1.00;0.30;;;18.60;44.60;;;;;;4808564;29;20054;-82
2021/05/15 13:33:01;;;;;;;0.55;0.30;;;18.60;45.00;;;;;;4823930;29;20058;-82
2021/05/15 13:35:29;;;;;;;0.70;0.22;;;18.80;46.00;;;;;;4812195;29;20080;-85
2021/05/15 13:37:57;;;;;;;2.13;0.40;;;18.30;46.90;;;;;;4796062;29;20058;-82
2021/05/15 13:40:25;;;;;;;4.32;0.30;;;18.40;46.80;;;;;;4823270;29;20066;-81
2021/05/15 13:42:53;;;;;;;0.85;0.20;;;18.50;47.60;;;;;;4810377;29;20070;-81
2021/05/15 13:45:21;;;;;;;2.13;0.40;;;17.60;47.50;;;;;;4807707;29;20051;-83
2021/05/15 13:47:51;;;;;;;0.88;0.22;;;17.60;47.30;;;;;;4822674;29;20051;-83
2021/05/15 13:50:18;;;;;;;2.90;0.40;;;17.30;46.70;;;;;;4808506;29;20046;-82
2021/05/15 13:52:45;;;;;;;0.30;0.22;;;17.40;48.20;;;;;;4810067;29;20055;-82
2021/05/15 13:55:14;;;;;;;2.05;0.25;;;16.70;49.20;;;;;;4811505;29;20046;-81
2021/05/15 13:57:41;;;;;;;0.85;0.40;;;16.60;50.00;;;;;;4810196;29;20091;-83
2021/05/15 14:00:13;;;;;;;2.65;0.45;;;16.50;50.90;;;;;;4787851;29;20134;-82
2021/05/15 14:02:41;;;;;;;1.20;0.30;;;16.10;51.70;;;;;;4792906;29;20312;-82
2021/05/15 14:05:11;;;;;;;0.73;0.20;;;15.90;52.70;;;;;;4792941;29;20042;-81
2021/05/15 14:07:38;;;;;;;;;;;15.90;54.40;;;;;;4795651;29;20066;-81
2021/05/15 14:10:08;;;;;;;2.00;0.40;;;15.60;57.10;;;;;;4787119;29;19929;-82
2021/05/15 14:12:39;;;;;;;2.38;0.40;;;15.10;59.40;;;;;;4809682;29;20070;-82
2021/05/15 14:15:07;;;;;;;2.47;0.45;;;14.70;63.80;;;;;;4798123;29;20054;-82
2021/05/15 14:17:36;;;;;;;0.50;0.30;;;14.20;65.60;;;;;;4810474;29;20304;-85
2021/05/15 14:20:05;;;;;;;0.82;0.30;;;13.80;69.60;;;;;;4782988;29;20095;-82
2021/05/15 14:22:45;;;;;;;4.47;0.40;;;13.60;72.30;;;;;;4801393;29;20067;-82
2021/05/15 14:25:14;;;;;;;;;;;13.10;76.20;;;;;;4797865;29;20047;-81
2021/05/15 14:27:42;;;;;;;1.70;0.30;;;13.10;73.60;;;;;;4807106;29;20045;-82
2021/05/15 14:30:11;;;;;;;0.90;0.40;;;13.10;72.70;;;;;;4822094;29;20089;-81
2021/05/15 14:32:39;;;;;;;2.13;0.30;;;13.20;73.90;;;;;;4818097;29;20279;-81
2021/05/15 14:35:08;;;;;;;2.22;0.40;;;13.20;72.90;;;;;;4804492;29;20290;-82
2021/05/15 14:37:35;;;;;;;0.65;0.20;;;13.20;72.80;;;;;;4774902;29;20095;-82
2021/05/15 14:40:05;;;;;;;0.30;0.30;;;13.10;73.70;;;;;;4809139;29;20059;-81
2021/05/15 14:42:33;;;;;;;0.32;0.15;;;13.20;72.90;;;;;;4806741;29;20062;-82
2021/05/15 14:45:01;;;;;;;0.52;0.20;;;13.30;70.70;;;;;;4807239;29;20055;-82
2021/05/15 14:47:28;;;;;;;1.65;0.30;;;13.40;71.60;;;;;;4807027;29;20075;-83
2021/05/15 14:49:55;;;;;;;0.98;0.40;;;14.20;68.50;;;;;;4792912;29;20262;-85
2021/05/15 14:52:26;;;;;;;1.10;0.47;;;15.40;65.90;;;;;;4823293;29;20067;-82
2021/05/15 14:54:53;;;;;;;0.45;0.28;;;16.70;63.30;;;;;;4805904;29;20081;-85
2021/05/15 14:57:21;;;;;;;1.55;0.45;;;18.70;55.90;;;;;;4793332;29;20046;-82
2021/05/15 14:59:48;;;;;;;0.90;0.40;;;18.20;56.30;;;;;;4790783;29;20372;-81
2021/05/15 15:02:15;;;;;;;1.50;0.38;;;16.90;58.50;;;;;;4780896;29;20062;-80
2021/05/15 15:04:43;;;;;;;1.60;0.30;;;16.30;61.60;;;;;;4809679;29;20050;-81
2021/05/15 15:07:11;;;;;;;1.52;0.40;;;15.90;61.70;;;;;;4809562;29;20108;-81
2021/05/15 15:09:38;;;;;;;2.05;0.20;;;15.60;62.00;;;;;;4826423;29;20066;-81
2021/05/15 15:12:06;;;;;;;1.45;0.63;;;15.10;62.20;;;;;;4783688;29;20066;-82
2021/05/15 15:14:34;;;;;;;0.15;0.15;;;14.70;64.30;;;;;;4800604;29;20046;-80
2021/05/15 15:17:05;;;;;;;2.47;0.40;;;14.60;65.70;;;;;;4813380;29;20065;-82
2021/05/15 15:19:33;;;;;;;2.25;0.50;;;14.40;65.50;;;;;;4808534;29;20103;-81
2021/05/15 15:22:00;;;;;;;0.98;0.50;;;14.60;65.90;;;;;;4810245;29;20062;-81
2021/05/15 15:24:30;;;;;;;0.70;0.25;;;14.60;66.00;;;;;;4824347;29;20250;-82
2021/05/15 15:26:57;;;;;;;2.88;0.85;;;15.20;64.30;;;;;;4811410;29;20299;-82
2021/05/15 15:29:24;;;;;;;0.40;0.20;;;16.10;60.20;;;;;;4795334;29;20103;-80
2021/05/15 15:31:52;;;;;;;0.60;0.30;;;15.90;60.50;;;;;;4811773;29;20066;-81
2021/05/15 15:34:19;;;;;;;3.90;0.77;;;16.00;62.20;;;;;;4824154;29;20361;-80
2021/05/15 15:36:47;;;;;;;0.95;0.50;;;16.00;62.90;;;;;;4807929;29;20085;-80
2021/05/15 15:39:16;;;;;;;1.10;0.30;;;15.40;64.30;;;;;;4808715;29;20432;-81
2021/05/15 15:41:43;;;;;;;2.35;0.40;;;15.10;62.70;;;;;;4801846;29;20066;-81
2021/05/15 15:44:12;;;;;;;2.25;0.60;;;14.90;64.50;;;;;;4795584;29;20093;-84
2021/05/15 15:46:40;;;;;;;3.17;0.88;;;14.70;65.10;;;;;;4804151;29;20269;-83
2021/05/15 15:49:07;;;;;;;0.82;0.52;;;14.90;63.30;;;;;;4807345;29;20089;-82
2021/05/15 15:51:34;;;;;;;1.25;0.50;;;15.30;62.40;;;;;;4809753;29;20100;-82
2021/05/15 15:54:05;;;;;;;1.70;0.50;;;15.90;61.40;;;;;;4810183;29;20055;-82
2021/05/15 15:56:34;;;;;;;2.85;0.45;;;15.90;61.30;;;;;;4806673;29;20085;-81
2021/05/15 15:59:02;;;;;;;2.00;0.40;;;15.50;61.10;;;;;;4822892;29;20047;-81
2021/05/15 16:01:31;;;;;;;1.00;0.40;;;15.70;62.00;;;;;;4805256;29;20088;-83
2021/05/15 16:03:58;;;;;;;2.22;0.50;;;15.70;61.70;;;;;;4791866;29;20055;-83
2021/05/15 16:06:25;;;;;;;2.10;0.50;;;15.90;60.60;;;;;;4820423;29;20112;-82
2021/05/15 16:08:52;;;;;;;3.08;0.60;;;15.60;61.20;;;;;;4782913;29;20058;-83
2021/05/15 16:11:22;;;;;;;1.30;0.30;;;15.60;62.20;;;;;;4819030;29;20050;-83
2021/05/15 16:13:49;;;;;;;2.42;0.68;;;15.30;61.50;;;;;;4821932;29;20049;-82
2021/05/15 16:16:17;;;;;;;3.67;0.75;;;15.20;62.00;;;;;;4795098;29;20063;-82
2021/05/15 16:18:44;;;;;;;0.93;0.50;;;15.20;61.30;;;;;;4822744;29;20085;-81
2021/05/15 16:21:14;;;;;;;2.70;0.90;;;15.20;60.90;;;;;;4822445;29;20361;-82
2021/05/15 16:23:44;;;;;;;1.83;0.50;;;15.20;61.10;;;;;;4806762;29;20230;-82
2021/05/15 16:26:14;;;;;;;1.42;0.50;;;15.30;61.10;;;;;;4821613;29;20051;-87
2021/05/15 16:28:49;;;;;;;3.53;0.50;;;15.20;60.90;;;;;;4808950;29;20365;-82
2021/05/15 16:31:16;;;;;;;2.40;0.65;;;15.40;61.10;;;;;;4809026;29;20106;-83
2021/05/15 16:33:43;;;;;;;0.93;0.30;;;15.30;61.20;;;;;;4813905;29;20079;-83
2021/05/15 16:36:13;;;;;;;1.33;0.43;;;15.20;62.30;;;;;;4795872;29;20065;-82
2021/05/15 16:38:41;;;;;;;0.90;0.30;;;15.10;62.20;;;;;;4811990;29;20053;-84
2021/05/15 16:41:11;;;;;;;3.65;0.75;;;15.00;62.60;;;;;;4814184;29;20054;-83
2021/05/15 16:43:38;;;;;;;1.13;0.50;;;14.80;63.00;;;;;;4827443;29;20062;-83
2021/05/15 16:46:07;;;;;;;1.20;0.52;;;14.60;63.20;;;;;;4798163;29;20280;-82
2021/05/15 16:48:38;;;;;;;3.47;0.70;;;14.70;63.30;;;;;;4811240;29;20066;-80
2021/05/15 16:51:13;;;;;;;1.45;0.60;;;14.60;63.80;;;;;;4802285;29;20057;-83
2021/05/15 16:53:42;;;;;;;0.85;0.47;;;14.50;64.10;;;;;;4826490;29;20059;-83
2021/05/15 16:56:10;;;;;;;2.07;0.60;;;14.40;65.80;;;;;;4798743;29;20054;-81
2021/05/15 16:58:38;;;;;;;2.22;0.50;;;14.10;66.10;;;;;;4785303;29;20062;-83
2021/05/15 17:01:09;;;;;;;2.05;0.40;;;14.00;66.30;;;;;;4801998;29;20067;-83
2021/05/15 17:03:37;;;;;;;6.22;0.68;;;14.00;66.70;;;;;;4795116;29;20050;-83
2021/05/15 17:06:05;;;;;;;2.78;0.70;;;14.00;67.10;;;;;;4812243;29;20051;-83
2021/05/15 17:08:33;;;;;;;4.53;0.80;;;14.10;67.80;;;;;;4807496;29;20067;-81
2021/05/15 17:11:00;;;;;;;3.45;0.60;;;14.00;67.20;;;;;;4819638;29;20365;-81
2021/05/15 17:13:28;;;;;;;0.95;0.40;;;14.00;68.20;;;;;;4819224;29;20319;-83
2021/05/15 17:15:56;;;;;;;4.53;1.48;;;13.90;67.90;;;;;;4803334;29;20072;-81
2021/05/15 17:18:27;;;;;;;1.55;0.60;;;13.90;67.80;;;;;;4824774;29;20071;-82
2021/05/15 17:20:55;;;;;;;4.15;1.00;;;13.90;68.60;;;;;;4824145;29;20277;-82
2021/05/15 17:23:24;;;;;;;5.85;1.48;;;14.10;68.00;;;;;;4824584;29;20066;-81
2021/05/15 17:25:51;;;;;;;1.58;0.55;;;14.20;67.60;;;;;;4814149;29;20062;-81
2021/05/15 17:28:18;;;;;;;1.60;0.38;;;14.20;67.10;;;;;;4810747;29;20118;-82
2021/05/15 17:30:45;;;;;;;4.72;0.75;;;14.20;67.50;;;;;;4794533;29;20042;-83
2021/05/15 17:33:14;;;;;;;2.17;0.73;;;14.10;67.80;;;;;;4794079;29;20058;-81
2021/05/15 17:35:42;;;;;;;2.40;0.80;;;14.00;68.70;;;;;;4808202;29;20089;-82
2021/05/15 17:38:10;;;;;;;4.65;1.10;;;13.90;70.50;;;;;;4826249;29;20047;-79
2021/05/15 17:40:40;;;;;;;2.75;0.93;;;13.90;70.80;;;;;;4809870;29;20050;-80
2021/05/15 17:43:07;;;;;;;7.15;1.27;;;13.80;71.10;;;;;;4819413;29;20065;-81
2021/05/15 17:45:35;;;;;;;5.38;0.75;;;13.80;71.10;;;;;;4817176;29;20061;-83
2021/05/15 17:48:05;;;;;;;2.25;0.82;;;13.70;71.00;;;;;;4781508;29;20058;-81
2021/05/15 17:50:33;;;;;;;1.83;0.57;;;13.60;74.90;;;;;;4794247;29;20075;-80
2021/05/15 17:53:02;;;;;;;1.17;0.55;;;13.70;75.60;;;;;;4811699;29;20347;-80
2021/05/15 17:55:30;;;;;;;1.50;0.60;;;13.60;76.30;;;;;;4809351;29;20055;-82
2021/05/15 17:57:57;;;;;;;3.80;0.68;;;13.60;78.40;;;;;;4809401;29;20051;-82
2021/05/15 18:00:27;;;;;;;1.00;0.55;;;13.60;77.70;;;;;;4775615;29;20655;-82
2021/05/15 18:02:54;;;;;;;3.60;0.90;;;13.60;78.40;;;;;;4808435;29;20105;-80
2021/05/15 18:05:21;;;;;;;3.85;1.40;;;13.60;79.50;;;;;;4809501;29;20118;-82
2021/05/15 18:07:48;;;;;;;5.25;1.50;;;13.60;78.90;;;;;;4809908;29;20433;-80
2021/05/15 18:10:19;;;;;;;4.97;1.40;;;13.60;79.20;;;;;;4807442;29;20049;-81
2021/05/15 18:12:46;;;;;;;8.25;1.70;;;13.50;79.10;;;;;;4807782;29;20130;-82
2021/05/15 18:15:15;;;;;;;2.85;1.20;;;13.40;81.20;;;;;;4807289;29;20074;-81
2021/05/15 18:17:43;;;;;;;5.05;1.35;;;13.20;82.20;;;;;;4838964;29;20058;-82
2021/05/15 18:20:12;;;;;;;42.47;23.02;;;13.30;82.90;;;;;;4808291;29;20581;-81
2021/05/15 18:22:39;;;;;;;22.08;12.38;;;13.30;82.30;;;;;;4808406;29;20058;-82
2021/05/15 18:25:08;;;;;;;65.47;33.40;;;13.30;83.40;;;;;;4816711;29;20313;-82
2021/05/15 18:27:39;;;;;;;8.38;4.00;;;13.50;81.80;;;;;;4808629;29;20058;-83
2021/05/15 18:30:08;;;;;;;7.75;3.40;;;13.40;80.60;;;;;;4810237;29;20063;-81
2021/05/15 18:32:36;;;;;;;10.07;4.15;;;13.20;81.90;;;;;;4804775;29;20085;-83
2021/05/15 18:35:04;;;;;;;7.25;3.05;;;13.20;83.10;;;;;;4812453;29;20258;-82
2021/05/15 18:37:32;;;;;;;3.60;1.35;;;13.10;84.40;;;;;;4811017;29;20353;-81
2021/05/15 18:40:03;;;;;;;3.30;0.90;;;13.20;84.50;;;;;;4825265;29;20073;-82
2021/05/15 18:42:35;;;;;;;2.35;0.85;;;13.10;84.30;;;;;;4807619;29;20157;-86
2021/05/15 18:45:06;;;;;;;3.42;0.93;;;13.10;83.00;;;;;;4815552;29;20237;-82
2021/05/15 18:47:33;;;;;;;4.32;2.20;;;13.10;83.80;;;;;;4808835;29;20139;-82
2021/05/15 18:50:00;;;;;;;2.55;1.10;;;13.00;83.70;;;;;;4826820;29;20083;-82
2021/05/15 18:52:32;;;;;;;2.72;0.70;;;12.80;84.20;;;;;;4842120;29;20108;-85
2021/05/15 18:54:59;;;;;;;2.25;0.90;;;12.70;84.50;;;;;;4812336;29;20058;-82
2021/05/15 18:57:31;;;;;;;2.75;0.95;;;12.70;85.50;;;;;;4813961;29;20066;-84
2021/05/15 18:59:59;;;;;;;2.65;0.90;;;12.60;85.80;;;;;;4815386;29;20069;-83
2021/05/15 19:02:27;;;;;;;3.42;0.98;;;12.50;86.10;;;;;;4810681;29;20096;-81
2021/05/15 19:04:54;;;;;;;2.22;0.80;;;12.50;86.80;;;;;;4810235;29;20062;-83
2021/05/15 19:07:21;;;;;;;4.65;1.40;;;12.50;87.70;;;;;;4828823;29;20059;-83
2021/05/15 19:09:50;;;;;;;6.32;1.77;;;12.40;87.10;;;;;;4806751;29;20051;-85
2021/05/15 19:12:17;;;;;;;3.67;1.92;;;12.40;87.00;;;;;;4830183;29;20066;-83
2021/05/15 19:14:44;;;;;;;6.00;2.30;;;12.40;86.70;;;;;;4811812;29;20062;-82
2021/05/15 19:17:11;;;;;;;5.65;2.10;;;12.50;86.50;;;;;;4807470;29;20055;-81
2021/05/15 19:19:41;;;;;;;5.68;1.83;;;12.40;86.80;;;;;;4811746;29;20054;-82
2021/05/15 19:22:09;;;;;;;2.28;0.90;;;12.30;87.70;;;;;;4812685;29;20081;-82
2021/05/15 19:24:36;;;;;;;3.67;1.42;;;12.20;87.70;;;;;;4823304;29;20054;-81
2021/05/15 19:27:04;;;;;;;2.20;0.70;;;12.20;87.60;;;;;;4804723;29;20088;-82
2021/05/15 19:29:31;;;;;;;3.03;1.05;;;12.20;87.90;;;;;;4819799;29;20054;-81
2021/05/15 19:31:58;;;;;;;2.05;0.80;;;12.10;88.20;;;;;;4800799;29;20063;-83
2021/05/15 19:34:25;;;;;;;2.97;1.30;;;12.00;88.40;;;;;;4801869;29;20043;-82
2021/05/15 19:36:54;;;;;;;2.53;1.20;;;11.90;88.50;;;;;;4810219;29;20046;-81
2021/05/15 19:39:23;;;;;;;3.92;2.17;;;11.80;88.60;;;;;;4801673;29;20080;-82
2021/05/15 19:41:50;;;;;;;1.58;1.10;;;11.70;88.80;;;;;;4809138;29;20346;-82
2021/05/15 19:44:18;;;;;;;1.73;0.95;;;11.60;89.60;;;;;;4799449;29;20062;-81
2021/05/15 19:46:47;;;;;;;3.97;1.33;;;11.50;90.00;;;;;;4793307;29;20063;-81
2021/05/15 19:49:15;;;;;;;4.30;1.52;;;11.60;90.00;;;;;;4808202;29;20059;-82
2021/05/15 19:51:44;;;;;;;2.28;0.95;;;11.60;89.90;;;;;;4806801;29;20134;-81
2021/05/15 19:54:22;;;;;;;4.38;2.70;;;11.50;90.30;;;;;;4814065;29;20050;-81
2021/05/15 19:56:49;;;;;;;6.47;2.20;;;11.50;90.70;;;;;;4795022;29;20114;-81
2021/05/15 19:59:16;;;;;;;7.50;1.85;;;11.50;90.30;;;;;;4811506;29;20062;-83
2021/05/15 20:01:44;;;;;;;6.57;2.40;;;11.50;90.40;;;;;;4787982;29;20089;-82
2021/05/15 20:04:17;;;;;;;4.88;1.80;;;11.40;90.10;;;;;;4805783;29;20070;-82
2021/05/15 20:06:44;;;;;;;4.53;1.48;;;11.40;90.70;;;;;;4795086;29;20070;-81
2021/05/15 20:09:13;;;;;;;4.18;1.77;;;11.40;90.00;;;;;;4782289;29;20078;-81
2021/05/15 20:11:41;;;;;;;2.25;0.98;;;11.40;90.00;;;;;;4797136;29;20058;-84
2021/05/15 20:14:09;;;;;;;3.58;1.70;;;11.50;89.90;;;;;;4809871;29;20050;-84
2021/05/15 20:16:36;;;;;;;2.47;1.40;;;11.40;90.00;;;;;;4802703;29;20051;-81
2021/05/15 20:19:04;;;;;;;3.58;1.35;;;11.50;90.00;;;;;;4790532;29;20281;-81
2021/05/15 20:21:34;;;;;;;7.65;1.60;;;11.50;90.50;;;;;;4792761;29;20067;-83
2021/05/15 20:24:03;;;;;;;3.33;1.17;;;11.60;89.60;;;;;;4806256;29;20262;-83
2021/05/15 20:26:32;;;;;;;4.60;1.73;;;11.60;90.10;;;;;;4791545;29;20062;-83
2021/05/15 20:28:59;;;;;;;3.20;1.20;;;11.70;90.00;;;;;;4794793;29;20051;-84
2021/05/15 20:31:31;;;;;;;2.63;1.50;;;11.60;89.50;;;;;;4810843;29;20166;-81
2021/05/15 20:33:58;;;;;;;5.22;1.70;;;11.70;89.90;;;;;;4789819;29;20047;-82
2021/05/15 20:36:26;;;;;;;3.78;1.70;;;11.70;89.80;;;;;;4809614;29;20069;-82
2021/05/15 20:38:54;;;;;;;4.32;1.70;;;11.70;90.20;;;;;;4809045;29;20277;-84
2021/05/15 20:41:23;;;;;;;3.92;1.92;;;11.70;89.50;;;;;;4805868;29;20413;-83
2021/05/15 20:43:52;;;;;;;3.28;1.52;;;11.70;89.50;;;;;;4806008;29;20074;-83
2021/05/15 20:46:19;;;;;;;4.13;1.52;;;11.70;89.20;;;;;;4806999;29;20073;-82
2021/05/15 20:48:49;;;;;;;4.47;1.70;;;11.70;89.10;;;;;;4811389;29;20078;-85
2021/05/15 20:51:18;;;;;;;5.35;1.33;;;11.70;88.70;;;;;;4809359;29;20054;-80
2021/05/15 20:53:45;;;;;;;2.10;1.05;;;11.70;88.00;;;;;;4794840;29;20059;-82
2021/05/15 20:56:12;;;;;;;4.47;1.40;;;11.70;87.30;;;;;;4779458;29;20059;-84
2021/05/15 20:58:39;;;;;;;3.05;1.42;;;11.70;87.30;;;;;;4791700;29;20074;-82